sensor_id;sensor_type;location;lat;lon;timestamp;P1;durP1;ratioP1;P2;durP2;ratioP2
6288;SDS011;3177;49.880;8.836;2022-12-15T00:00:25;31.87;;;15.60;;
6288;SDS011;3177;49.880;8.836;2022-12-15T00:03:09;26.47;;;16.97;;
6288;SDS011;3177;49.880;8.836;2022-12-15T00:05:54;28.60;;;16.50;;
6288;SDS011;3177;49.880;8.836;2022-12-15T00:08:40;24.17;;;15.60;;
6288;SDS011;3177;49.880;8.836;2022-12-15T00:11:25;30.03;;;18.80;;
6288;SDS011;3177;49.880;8.836;2022-12-15T00:14:10;27.70;;;15.27;;
6288;SDS011;3177;49.880;8.836;2022-12-15T00:16:54;28.67;;;16.40;;
6288;SDS011;3177;49.880;8.836;2022-12-15T00:19:39;28.37;;;17.37;;
6288;SDS011;3177;49.880;8.836;2022-12-15T00:22:24;34.70;;;17.20;;
6288;SDS011;3177;49.880;8.836;2022-12-15T00:25:10;26.23;;;16.07;;
6288;SDS011;3177;49.880;8.836;2022-12-15T00:27:55;25.50;;;16.53;;
6288;SDS011;3177;49.880;8.836;2022-12-15T00:30:39;27.27;;;15.40;;
6288;SDS011;3177;49.880;8.836;2022-12-15T00:33:24;26.67;;;15.33;;
6288;SDS011;3177;49.880;8.836;2022-12-15T00:36:09;29.03;;;15.73;;
6288;SDS011;3177;49.880;8.836;2022-12-15T00:38:54;27.23;;;16.07;;
6288;SDS011;3177;49.880;8.836;2022-12-15T00:41:22;28.77;;;15.73;;
6288;SDS011;3177;49.880;8.836;2022-12-15T00:43:49;24.97;;;15.27;;
6288;SDS011;3177;49.880;8.836;2022-12-15T00:46:16;28.07;;;15.70;;
6288;SDS011;3177;49.880;8.836;2022-12-15T00:49:01;24.93;;;15.00;;
6288;SDS011;3177;49.880;8.836;2022-12-15T00:51:48;28.10;;;15.40;;
6288;SDS011;3177;49.880;8.836;2022-12-15T00:54:33;30.20;;;17.00;;
6288;SDS011;3177;49.880;8.836;2022-12-15T00:57:19;26.97;;;17.47;;
6288;SDS011;3177;49.880;8.836;2022-12-15T01:00:04;35.47;;;16.97;;
6288;SDS011;3177;49.880;8.836;2022-12-15T01:02:49;30.23;;;16.17;;
6288;SDS011;3177;49.880;8.836;2022-12-15T01:05:33;31.23;;;17.43;;
6288;SDS011;3177;49.880;8.836;2022-12-15T01:08:19;31.70;;;16.77;;
6288;SDS011;3177;49.880;8.836;2022-12-15T01:11:03;36.93;;;16.53;;
6288;SDS011;3177;49.880;8.836;2022-12-15T01:13:49;34.90;;;16.83;;
6288;SDS011;3177;49.880;8.836;2022-12-15T01:16:33;31.57;;;17.20;;
6288;SDS011;3177;49.880;8.836;2022-12-15T01:19:18;30.33;;;16.23;;
6288;SDS011;3177;49.880;8.836;2022-12-15T01:22:04;30.07;;;17.43;;
6288;SDS011;3177;49.880;8.836;2022-12-15T01:24:31;32.93;;;17.20;;
6288;SDS011;3177;49.880;8.836;2022-12-15T01:26:58;27.13;;;15.80;;
6288;SDS011;3177;49.880;8.836;2022-12-15T01:29:27;32.87;;;17.97;;
6288;SDS011;3177;49.880;8.836;2022-12-15T01:31:54;30.97;;;16.93;;
6288;SDS011;3177;49.880;8.836;2022-12-15T01:34:21;31.57;;;16.13;;
6288;SDS011;3177;49.880;8.836;2022-12-15T01:36:48;26.53;;;17.27;;
6288;SDS011;3177;49.880;8.836;2022-12-15T01:39:15;30.90;;;16.60;;
6288;SDS011;3177;49.880;8.836;2022-12-15T01:41:42;28.00;;;15.30;;
6288;SDS011;3177;49.880;8.836;2022-12-15T01:44:15;29.50;;;16.57;;
6288;SDS011;3177;49.880;8.836;2022-12-15T01:46:44;30.87;;;17.07;;
6288;SDS011;3177;49.880;8.836;2022-12-15T01:49:13;29.13;;;15.57;;
6288;SDS011;3177;49.880;8.836;2022-12-15T01:51:41;33.63;;;17.73;;
6288;SDS011;3177;49.880;8.836;2022-12-15T01:54:11;32.43;;;17.13;;
6288;SDS011;3177;49.880;8.836;2022-12-15T01:56:41;33.97;;;17.93;;
6288;SDS011;3177;49.880;8.836;2022-12-15T01:59:11;31.43;;;17.43;;
6288;SDS011;3177;49.880;8.836;2022-12-15T02:01:40;32.17;;;17.77;;
6288;SDS011;3177;49.880;8.836;2022-12-15T02:04:08;25.10;;;14.80;;
6288;SDS011;3177;49.880;8.836;2022-12-15T02:06:35;37.10;;;17.43;;
6288;SDS011;3177;49.880;8.836;2022-12-15T02:09:03;31.57;;;17.93;;
6288;SDS011;3177;49.880;8.836;2022-12-15T02:11:43;30.17;;;17.33;;
6288;SDS011;3177;49.880;8.836;2022-12-15T02:14:13;29.17;;;16.93;;
6288;SDS011;3177;49.880;8.836;2022-12-15T02:16:46;29.27;;;16.23;;
6288;SDS011;3177;49.880;8.836;2022-12-15T02:19:26;28.20;;;16.37;;
6288;SDS011;3177;49.880;8.836;2022-12-15T02:22:01;26.93;;;15.77;;
6288;SDS011;3177;49.880;8.836;2022-12-15T02:24:38;28.63;;;17.57;;
6288;SDS011;3177;49.880;8.836;2022-12-15T02:27:39;28.23;;;17.00;;
6288;SDS011;3177;49.880;8.836;2022-12-15T02:30:19;28.17;;;15.10;;
6288;SDS011;3177;49.880;8.836;2022-12-15T02:32:48;27.30;;;16.10;;
6288;SDS011;3177;49.880;8.836;2022-12-15T02:35:18;25.30;;;15.97;;
6288;SDS011;3177;49.880;8.836;2022-12-15T02:37:48;29.57;;;17.03;;
6288;SDS011;3177;49.880;8.836;2022-12-15T02:40:15;31.50;;;16.53;;
6288;SDS011;3177;49.880;8.836;2022-12-15T02:42:44;28.37;;;15.97;;
6288;SDS011;3177;49.880;8.836;2022-12-15T02:45:13;29.53;;;17.00;;
6288;SDS011;3177;49.880;8.836;2022-12-15T02:47:43;31.40;;;15.93;;
6288;SDS011;3177;49.880;8.836;2022-12-15T02:50:23;24.93;;;16.07;;
6288;SDS011;3177;49.880;8.836;2022-12-15T02:52:54;28.60;;;15.83;;
6288;SDS011;3177;49.880;8.836;2022-12-15T02:55:26;27.90;;;16.83;;
6288;SDS011;3177;49.880;8.836;2022-12-15T02:57:58;31.53;;;16.67;;
6288;SDS011;3177;49.880;8.836;2022-12-15T03:00:26;30.00;;;16.00;;
6288;SDS011;3177;49.880;8.836;2022-12-15T03:02:55;27.20;;;15.07;;
6288;SDS011;3177;49.880;8.836;2022-12-15T03:05:23;25.97;;;15.73;;
6288;SDS011;3177;49.880;8.836;2022-12-15T03:07:50;31.07;;;14.87;;
6288;SDS011;3177;49.880;8.836;2022-12-15T03:10:18;28.50;;;15.23;;
6288;SDS011;3177;49.880;8.836;2022-12-15T03:12:46;26.73;;;16.10;;
6288;SDS011;3177;49.880;8.836;2022-12-15T03:15:14;33.83;;;16.67;;
6288;SDS011;3177;49.880;8.836;2022-12-15T03:17:41;23.70;;;14.67;;
6288;SDS011;3177;49.880;8.836;2022-12-15T03:20:10;29.17;;;15.83;;
6288;SDS011;3177;49.880;8.836;2022-12-15T03:22:37;28.10;;;15.10;;
6288;SDS011;3177;49.880;8.836;2022-12-15T03:25:05;24.93;;;14.77;;
6288;SDS011;3177;49.880;8.836;2022-12-15T03:27:32;28.37;;;14.97;;
6288;SDS011;3177;49.880;8.836;2022-12-15T03:29:59;29.00;;;13.97;;
6288;SDS011;3177;49.880;8.836;2022-12-15T03:32:26;23.47;;;13.40;;
6288;SDS011;3177;49.880;8.836;2022-12-15T03:34:53;27.67;;;13.83;;
6288;SDS011;3177;49.880;8.836;2022-12-15T03:37:22;18.57;;;12.57;;
6288;SDS011;3177;49.880;8.836;2022-12-15T03:39:49;21.83;;;13.93;;
6288;SDS011;3177;49.880;8.836;2022-12-15T03:42:16;20.60;;;13.23;;
6288;SDS011;3177;49.880;8.836;2022-12-15T03:45:03;21.57;;;13.23;;
6288;SDS011;3177;49.880;8.836;2022-12-15T03:47:30;21.53;;;12.80;;
6288;SDS011;3177;49.880;8.836;2022-12-15T03:49:57;19.80;;;12.57;;
6288;SDS011;3177;49.880;8.836;2022-12-15T03:52:26;20.30;;;13.63;;
6288;SDS011;3177;49.880;8.836;2022-12-15T03:54:53;23.03;;;13.60;;
6288;SDS011;3177;49.880;8.836;2022-12-15T03:57:20;25.30;;;14.80;;
6288;SDS011;3177;49.880;8.836;2022-12-15T03:59:47;22.00;;;13.27;;
6288;SDS011;3177;49.880;8.836;2022-12-15T04:02:14;20.73;;;13.97;;
6288;SDS011;3177;49.880;8.836;2022-12-15T04:04:42;26.33;;;14.47;;
6288;SDS011;3177;49.880;8.836;2022-12-15T04:07:09;21.00;;;13.80;;
6288;SDS011;3177;49.880;8.836;2022-12-15T04:09:37;25.87;;;13.23;;
6288;SDS011;3177;49.880;8.836;2022-12-15T04:12:04;24.27;;;13.17;;
6288;SDS011;3177;49.880;8.836;2022-12-15T04:14:31;26.53;;;14.30;;
6288;SDS011;3177;49.880;8.836;2022-12-15T04:16:58;23.43;;;14.07;;
6288;SDS011;3177;49.880;8.836;2022-12-15T04:19:26;18.07;;;13.33;;
6288;SDS011;3177;49.880;8.836;2022-12-15T04:22:10;21.87;;;13.83;;
6288;SDS011;3177;49.880;8.836;2022-12-15T04:24:39;21.20;;;13.63;;
6288;SDS011;3177;49.880;8.836;2022-12-15T04:27:24;19.57;;;13.00;;
6288;SDS011;3177;49.880;8.836;2022-12-15T04:30:09;22.23;;;13.20;;
6288;SDS011;3177;49.880;8.836;2022-12-15T04:32:54;22.70;;;13.57;;
6288;SDS011;3177;49.880;8.836;2022-12-15T04:35:39;21.57;;;12.13;;
6288;SDS011;3177;49.880;8.836;2022-12-15T04:38:23;15.57;;;11.40;;
6288;SDS011;3177;49.880;8.836;2022-12-15T04:41:09;24.70;;;12.57;;
6288;SDS011;3177;49.880;8.836;2022-12-15T04:43:54;19.87;;;12.73;;
6288;SDS011;3177;49.880;8.836;2022-12-15T04:46:38;19.77;;;12.30;;
6288;SDS011;3177;49.880;8.836;2022-12-15T04:49:23;19.47;;;13.50;;
6288;SDS011;3177;49.880;8.836;2022-12-15T04:52:08;24.83;;;13.30;;
6288;SDS011;3177;49.880;8.836;2022-12-15T04:54:53;19.97;;;12.50;;
6288;SDS011;3177;49.880;8.836;2022-12-15T04:57:39;26.03;;;13.00;;
6288;SDS011;3177;49.880;8.836;2022-12-15T05:00:24;23.23;;;13.60;;
6288;SDS011;3177;49.880;8.836;2022-12-15T05:03:08;21.37;;;12.97;;
6288;SDS011;3177;49.880;8.836;2022-12-15T05:05:53;22.83;;;12.53;;
6288;SDS011;3177;49.880;8.836;2022-12-15T05:08:38;20.43;;;12.80;;
6288;SDS011;3177;49.880;8.836;2022-12-15T05:11:23;21.77;;;13.00;;
6288;SDS011;3177;49.880;8.836;2022-12-15T05:14:09;24.90;;;13.17;;
6288;SDS011;3177;49.880;8.836;2022-12-15T05:16:54;23.07;;;13.40;;
6288;SDS011;3177;49.880;8.836;2022-12-15T05:19:39;26.27;;;12.93;;
6288;SDS011;3177;49.880;8.836;2022-12-15T05:22:23;23.70;;;14.17;;
6288;SDS011;3177;49.880;8.836;2022-12-15T05:25:08;20.03;;;12.23;;
6288;SDS011;3177;49.880;8.836;2022-12-15T05:27:53;19.67;;;13.57;;
6288;SDS011;3177;49.880;8.836;2022-12-15T05:30:39;25.10;;;13.17;;
6288;SDS011;3177;49.880;8.836;2022-12-15T05:33:24;28.83;;;12.40;;
6288;SDS011;3177;49.880;8.836;2022-12-15T05:35:51;20.03;;;13.23;;
6288;SDS011;3177;49.880;8.836;2022-12-15T05:38:18;20.27;;;11.27;;
6288;SDS011;3177;49.880;8.836;2022-12-15T05:40:45;25.03;;;14.90;;
6288;SDS011;3177;49.880;8.836;2022-12-15T05:43:12;17.17;;;11.40;;
6288;SDS011;3177;49.880;8.836;2022-12-15T05:45:40;21.20;;;13.13;;
6288;SDS011;3177;49.880;8.836;2022-12-15T05:48:07;23.33;;;12.90;;
6288;SDS011;3177;49.880;8.836;2022-12-15T05:50:35;19.60;;;12.80;;
6288;SDS011;3177;49.880;8.836;2022-12-15T05:53:02;21.60;;;14.27;;
6288;SDS011;3177;49.880;8.836;2022-12-15T05:55:29;17.80;;;12.27;;
6288;SDS011;3177;49.880;8.836;2022-12-15T05:57:56;20.77;;;14.00;;
6288;SDS011;3177;49.880;8.836;2022-12-15T06:00:23;21.67;;;12.17;;
6288;SDS011;3177;49.880;8.836;2022-12-15T06:02:51;21.87;;;13.40;;
6288;SDS011;3177;49.880;8.836;2022-12-15T06:05:18;20.50;;;12.63;;
6288;SDS011;3177;49.880;8.836;2022-12-15T06:07:45;18.87;;;13.03;;
6288;SDS011;3177;49.880;8.836;2022-12-15T06:10:12;20.93;;;12.57;;
6288;SDS011;3177;49.880;8.836;2022-12-15T06:12:39;22.50;;;12.90;;
6288;SDS011;3177;49.880;8.836;2022-12-15T06:15:07;21.93;;;12.67;;
6288;SDS011;3177;49.880;8.836;2022-12-15T06:17:34;20.77;;;12.03;;
6288;SDS011;3177;49.880;8.836;2022-12-15T06:20:03;17.07;;;12.87;;
6288;SDS011;3177;49.880;8.836;2022-12-15T06:22:30;23.67;;;12.73;;
6288;SDS011;3177;49.880;8.836;2022-12-15T06:24:57;22.57;;;12.27;;
6288;SDS011;3177;49.880;8.836;2022-12-15T06:27:24;27.70;;;12.93;;
6288;SDS011;3177;49.880;8.836;2022-12-15T06:29:51;22.00;;;13.83;;
6288;SDS011;3177;49.880;8.836;2022-12-15T06:32:18;20.23;;;13.93;;
6288;SDS011;3177;49.880;8.836;2022-12-15T06:34:46;20.23;;;12.77;;
6288;SDS011;3177;49.880;8.836;2022-12-15T06:37:15;26.93;;;13.83;;
6288;SDS011;3177;49.880;8.836;2022-12-15T06:39:42;20.77;;;13.23;;
6288;SDS011;3177;49.880;8.836;2022-12-15T06:42:10;20.30;;;13.33;;
6288;SDS011;3177;49.880;8.836;2022-12-15T06:44:38;19.80;;;12.57;;
6288;SDS011;3177;49.880;8.836;2022-12-15T06:47:05;19.00;;;12.20;;
6288;SDS011;3177;49.880;8.836;2022-12-15T06:49:32;18.23;;;11.83;;
6288;SDS011;3177;49.880;8.836;2022-12-15T06:51:59;19.97;;;12.13;;
6288;SDS011;3177;49.880;8.836;2022-12-15T06:54:28;25.43;;;14.53;;
6288;SDS011;3177;49.880;8.836;2022-12-15T06:56:55;26.57;;;13.17;;
6288;SDS011;3177;49.880;8.836;2022-12-15T06:59:22;20.23;;;12.53;;
6288;SDS011;3177;49.880;8.836;2022-12-15T07:01:49;18.97;;;13.60;;
6288;SDS011;3177;49.880;8.836;2022-12-15T07:04:16;23.87;;;12.60;;
6288;SDS011;3177;49.880;8.836;2022-12-15T07:06:43;20.37;;;12.50;;
6288;SDS011;3177;49.880;8.836;2022-12-15T07:09:12;21.57;;;12.70;;
6288;SDS011;3177;49.880;8.836;2022-12-15T07:11:43;21.97;;;13.13;;
6288;SDS011;3177;49.880;8.836;2022-12-15T07:14:13;24.70;;;13.20;;
6288;SDS011;3177;49.880;8.836;2022-12-15T07:16:40;25.60;;;15.40;;
6288;SDS011;3177;49.880;8.836;2022-12-15T07:19:08;24.80;;;13.90;;
6288;SDS011;3177;49.880;8.836;2022-12-15T07:21:36;20.20;;;13.10;;
6288;SDS011;3177;49.880;8.836;2022-12-15T07:24:05;27.37;;;14.17;;
6288;SDS011;3177;49.880;8.836;2022-12-15T07:26:32;21.07;;;14.17;;
6288;SDS011;3177;49.880;8.836;2022-12-15T07:29:01;25.13;;;14.33;;
6288;SDS011;3177;49.880;8.836;2022-12-15T07:31:28;23.47;;;14.03;;
6288;SDS011;3177;49.880;8.836;2022-12-15T07:33:56;20.80;;;13.57;;
6288;SDS011;3177;49.880;8.836;2022-12-15T07:36:25;19.47;;;13.40;;
6288;SDS011;3177;49.880;8.836;2022-12-15T07:38:55;22.03;;;13.80;;
6288;SDS011;3177;49.880;8.836;2022-12-15T07:41:22;29.80;;;13.63;;
6288;SDS011;3177;49.880;8.836;2022-12-15T07:43:50;19.90;;;13.93;;
6288;SDS011;3177;49.880;8.836;2022-12-15T07:46:19;21.57;;;13.37;;
6288;SDS011;3177;49.880;8.836;2022-12-15T07:48:46;23.40;;;13.53;;
6288;SDS011;3177;49.880;8.836;2022-12-15T07:51:13;20.87;;;12.90;;
6288;SDS011;3177;49.880;8.836;2022-12-15T07:53:40;20.13;;;14.10;;
6288;SDS011;3177;49.880;8.836;2022-12-15T07:56:07;23.73;;;13.17;;
6288;SDS011;3177;49.880;8.836;2022-12-15T07:58:34;20.57;;;14.13;;
6288;SDS011;3177;49.880;8.836;2022-12-15T08:01:02;24.17;;;14.37;;
6288;SDS011;3177;49.880;8.836;2022-12-15T08:03:31;24.90;;;14.70;;
6288;SDS011;3177;49.880;8.836;2022-12-15T08:06:01;23.73;;;13.80;;
6288;SDS011;3177;49.880;8.836;2022-12-15T08:08:29;24.47;;;14.13;;
6288;SDS011;3177;49.880;8.836;2022-12-15T08:10:56;26.50;;;15.23;;
6288;SDS011;3177;49.880;8.836;2022-12-15T08:13:23;26.37;;;15.00;;
6288;SDS011;3177;49.880;8.836;2022-12-15T08:15:51;28.33;;;14.87;;
6288;SDS011;3177;49.880;8.836;2022-12-15T08:18:19;26.47;;;16.70;;
6288;SDS011;3177;49.880;8.836;2022-12-15T08:20:47;24.03;;;15.97;;
6288;SDS011;3177;49.880;8.836;2022-12-15T08:23:15;28.93;;;17.00;;
6288;SDS011;3177;49.880;8.836;2022-12-15T08:25:42;29.10;;;16.27;;
6288;SDS011;3177;49.880;8.836;2022-12-15T08:28:09;26.93;;;16.47;;
6288;SDS011;3177;49.880;8.836;2022-12-15T08:30:36;29.43;;;15.97;;
6288;SDS011;3177;49.880;8.836;2022-12-15T08:33:03;30.20;;;17.73;;
6288;SDS011;3177;49.880;8.836;2022-12-15T08:35:31;34.07;;;18.57;;
6288;SDS011;3177;49.880;8.836;2022-12-15T08:38:00;29.93;;;16.10;;
6288;SDS011;3177;49.880;8.836;2022-12-15T08:40:28;26.20;;;15.83;;
6288;SDS011;3177;49.880;8.836;2022-12-15T08:42:55;24.83;;;16.33;;
6288;SDS011;3177;49.880;8.836;2022-12-15T08:45:22;27.50;;;16.40;;
6288;SDS011;3177;49.880;8.836;2022-12-15T08:47:49;29.43;;;17.50;;
6288;SDS011;3177;49.880;8.836;2022-12-15T08:50:16;38.97;;;19.33;;
6288;SDS011;3177;49.880;8.836;2022-12-15T08:52:43;39.80;;;18.30;;
6288;SDS011;3177;49.880;8.836;2022-12-15T08:55:12;35.70;;;18.27;;
6288;SDS011;3177;49.880;8.836;2022-12-15T08:57:39;44.47;;;20.37;;
6288;SDS011;3177;49.880;8.836;2022-12-15T09:00:07;29.87;;;14.87;;
6288;SDS011;3177;49.880;8.836;2022-12-15T09:02:34;34.20;;;19.20;;
6288;SDS011;3177;49.880;8.836;2022-12-15T09:05:01;38.97;;;19.97;;
6288;SDS011;3177;49.880;8.836;2022-12-15T09:07:30;38.20;;;18.53;;
6288;SDS011;3177;49.880;8.836;2022-12-15T09:09:57;42.30;;;18.90;;
6288;SDS011;3177;49.880;8.836;2022-12-15T09:12:25;54.37;;;21.00;;
6288;SDS011;3177;49.880;8.836;2022-12-15T09:14:53;49.83;;;19.97;;
6288;SDS011;3177;49.880;8.836;2022-12-15T09:17:20;45.57;;;19.67;;
6288;SDS011;3177;49.880;8.836;2022-12-15T09:19:47;46.93;;;19.90;;
6288;SDS011;3177;49.880;8.836;2022-12-15T09:22:14;40.60;;;20.43;;
6288;SDS011;3177;49.880;8.836;2022-12-15T09:24:41;55.20;;;21.93;;
6288;SDS011;3177;49.880;8.836;2022-12-15T09:27:08;47.70;;;22.87;;
6288;SDS011;3177;49.880;8.836;2022-12-15T09:29:36;53.50;;;22.50;;
6288;SDS011;3177;49.880;8.836;2022-12-15T09:32:03;57.20;;;23.17;;
6288;SDS011;3177;49.880;8.836;2022-12-15T09:34:31;49.13;;;21.97;;
6288;SDS011;3177;49.880;8.836;2022-12-15T09:36:58;46.43;;;20.57;;
6288;SDS011;3177;49.880;8.836;2022-12-15T09:39:25;39.83;;;19.37;;
6288;SDS011;3177;49.880;8.836;2022-12-15T09:41:53;48.77;;;22.70;;
6288;SDS011;3177;49.880;8.836;2022-12-15T09:44:21;50.73;;;21.80;;
6288;SDS011;3177;49.880;8.836;2022-12-15T09:46:54;52.50;;;21.53;;
6288;SDS011;3177;49.880;8.836;2022-12-15T09:49:29;50.93;;;23.87;;
6288;SDS011;3177;49.880;8.836;2022-12-15T09:52:01;57.57;;;25.50;;
6288;SDS011;3177;49.880;8.836;2022-12-15T09:54:31;51.53;;;23.43;;
6288;SDS011;3177;49.880;8.836;2022-12-15T09:56:59;47.67;;;24.07;;
6288;SDS011;3177;49.880;8.836;2022-12-15T09:59:28;51.27;;;23.13;;
6288;SDS011;3177;49.880;8.836;2022-12-15T10:02:02;52.10;;;23.03;;
6288;SDS011;3177;49.880;8.836;2022-12-15T10:04:35;50.77;;;25.27;;
6288;SDS011;3177;49.880;8.836;2022-12-15T10:07:05;55.57;;;26.60;;
6288;SDS011;3177;49.880;8.836;2022-12-15T10:09:34;57.77;;;24.23;;
6288;SDS011;3177;49.880;8.836;2022-12-15T10:12:04;59.00;;;25.57;;
6288;SDS011;3177;49.880;8.836;2022-12-15T10:14:34;55.23;;;24.33;;
6288;SDS011;3177;49.880;8.836;2022-12-15T10:17:08;58.53;;;22.30;;
6288;SDS011;3177;49.880;8.836;2022-12-15T10:19:42;43.77;;;22.30;;
6288;SDS011;3177;49.880;8.836;2022-12-15T10:22:11;36.47;;;18.90;;
6288;SDS011;3177;49.880;8.836;2022-12-15T10:24:39;52.23;;;24.83;;
6288;SDS011;3177;49.880;8.836;2022-12-15T10:27:12;37.27;;;20.27;;
6288;SDS011;3177;49.880;8.836;2022-12-15T10:29:45;50.37;;;24.03;;
6288;SDS011;3177;49.880;8.836;2022-12-15T10:32:16;52.40;;;26.40;;
6288;SDS011;3177;49.880;8.836;2022-12-15T10:34:44;64.77;;;30.57;;
6288;SDS011;3177;49.880;8.836;2022-12-15T10:37:12;52.23;;;24.23;;
6288;SDS011;3177;49.880;8.836;2022-12-15T10:39:40;50.23;;;24.53;;
6288;SDS011;3177;49.880;8.836;2022-12-15T10:42:09;61.13;;;26.00;;
6288;SDS011;3177;49.880;8.836;2022-12-15T10:44:37;48.00;;;23.60;;
6288;SDS011;3177;49.880;8.836;2022-12-15T10:47:07;47.03;;;22.83;;
6288;SDS011;3177;49.880;8.836;2022-12-15T10:49:36;35.93;;;20.30;;
6288;SDS011;3177;49.880;8.836;2022-12-15T10:52:03;42.40;;;20.53;;
6288;SDS011;3177;49.880;8.836;2022-12-15T10:54:31;40.40;;;19.47;;
6288;SDS011;3177;49.880;8.836;2022-12-15T10:57:02;38.93;;;19.87;;
6288;SDS011;3177;49.880;8.836;2022-12-15T10:59:40;41.80;;;21.80;;
6288;SDS011;3177;49.880;8.836;2022-12-15T11:02:17;41.30;;;22.57;;
6288;SDS011;3177;49.880;8.836;2022-12-15T11:04:54;35.97;;;17.43;;
6288;SDS011;3177;49.880;8.836;2022-12-15T11:07:22;40.33;;;20.37;;
6288;SDS011;3177;49.880;8.836;2022-12-15T11:09:49;38.17;;;21.57;;
6288;SDS011;3177;49.880;8.836;2022-12-15T11:12:23;37.57;;;21.03;;
6288;SDS011;3177;49.880;8.836;2022-12-15T11:17:55;34.43;;;18.27;;
6288;SDS011;3177;49.880;8.836;2022-12-15T11:20:26;33.17;;;20.43;;
6288;SDS011;3177;49.880;8.836;2022-12-15T11:22:56;38.53;;;20.80;;
6288;SDS011;3177;49.880;8.836;2022-12-15T11:25:26;36.73;;;20.27;;
6288;SDS011;3177;49.880;8.836;2022-12-15T11:27:55;34.00;;;18.57;;
6288;SDS011;3177;49.880;8.836;2022-12-15T11:30:23;37.43;;;20.67;;
6288;SDS011;3177;49.880;8.836;2022-12-15T11:32:51;36.43;;;21.10;;
6288;SDS011;3177;49.880;8.836;2022-12-15T11:35:21;32.20;;;18.73;;
6288;SDS011;3177;49.880;8.836;2022-12-15T11:37:54;37.80;;;20.70;;
6288;SDS011;3177;49.880;8.836;2022-12-15T11:40:26;37.13;;;20.00;;
6288;SDS011;3177;49.880;8.836;2022-12-15T11:43:12;34.20;;;19.00;;
6288;SDS011;3177;49.880;8.836;2022-12-15T11:45:45;32.40;;;19.83;;
6288;SDS011;3177;49.880;8.836;2022-12-15T11:48:16;31.23;;;18.27;;
6288;SDS011;3177;49.880;8.836;2022-12-15T11:50:48;32.00;;;18.80;;
6288;SDS011;3177;49.880;8.836;2022-12-15T11:53:20;39.00;;;21.00;;
6288;SDS011;3177;49.880;8.836;2022-12-15T11:55:50;41.23;;;19.30;;
6288;SDS011;3177;49.880;8.836;2022-12-15T11:58:22;36.50;;;20.00;;
6288;SDS011;3177;49.880;8.836;2022-12-15T12:00:54;39.97;;;20.77;;
6288;SDS011;3177;49.880;8.836;2022-12-15T12:03:27;34.07;;;19.30;;
6288;SDS011;3177;49.880;8.836;2022-12-15T12:06:02;32.07;;;17.90;;
6288;SDS011;3177;49.880;8.836;2022-12-15T12:08:44;31.33;;;19.67;;
6288;SDS011;3177;49.880;8.836;2022-12-15T12:11:12;35.00;;;20.70;;
6288;SDS011;3177;49.880;8.836;2022-12-15T12:13:44;29.43;;;18.50;;
6288;SDS011;3177;49.880;8.836;2022-12-15T12:16:17;31.50;;;19.20;;
6288;SDS011;3177;49.880;8.836;2022-12-15T12:18:50;27.67;;;16.90;;
6288;SDS011;3177;49.880;8.836;2022-12-15T12:21:22;31.37;;;18.80;;
6288;SDS011;3177;49.880;8.836;2022-12-15T12:23:53;19.80;;;12.93;;
6288;SDS011;3177;49.880;8.836;2022-12-15T12:26:22;32.97;;;18.77;;
6288;SDS011;3177;49.880;8.836;2022-12-15T12:28:52;33.70;;;17.57;;
6288;SDS011;3177;49.880;8.836;2022-12-15T12:31:25;32.13;;;18.73;;
6288;SDS011;3177;49.880;8.836;2022-12-15T12:33:56;35.37;;;19.67;;
6288;SDS011;3177;49.880;8.836;2022-12-15T12:36:24;34.67;;;19.10;;
6288;SDS011;3177;49.880;8.836;2022-12-15T12:38:52;34.83;;;17.33;;
6288;SDS011;3177;49.880;8.836;2022-12-15T12:41:22;31.70;;;19.30;;
6288;SDS011;3177;49.880;8.836;2022-12-15T12:43:52;38.13;;;19.63;;
6288;SDS011;3177;49.880;8.836;2022-12-15T12:46:22;34.33;;;20.33;;
6288;SDS011;3177;49.880;8.836;2022-12-15T12:48:51;34.30;;;19.57;;
6288;SDS011;3177;49.880;8.836;2022-12-15T12:51:21;32.97;;;19.53;;
6288;SDS011;3177;49.880;8.836;2022-12-15T12:53:50;34.70;;;19.27;;
6288;SDS011;3177;49.880;8.836;2022-12-15T12:56:35;35.90;;;19.70;;
6288;SDS011;3177;49.880;8.836;2022-12-15T12:59:04;32.23;;;18.77;;
6288;SDS011;3177;49.880;8.836;2022-12-15T13:01:34;31.23;;;17.43;;
6288;SDS011;3177;49.880;8.836;2022-12-15T13:04:03;33.63;;;17.30;;
6288;SDS011;3177;49.880;8.836;2022-12-15T13:06:55;31.57;;;18.43;;
6288;SDS011;3177;49.880;8.836;2022-12-15T13:09:23;27.50;;;16.73;;
6288;SDS011;3177;49.880;8.836;2022-12-15T13:11:55;32.97;;;18.90;;
6288;SDS011;3177;49.880;8.836;2022-12-15T13:14:44;32.07;;;18.33;;
6288;SDS011;3177;49.880;8.836;2022-12-15T13:17:16;33.17;;;18.13;;
6288;SDS011;3177;49.880;8.836;2022-12-15T13:20:03;35.87;;;18.90;;
6288;SDS011;3177;49.880;8.836;2022-12-15T13:22:34;34.47;;;18.73;;
6288;SDS011;3177;49.880;8.836;2022-12-15T13:25:24;33.40;;;18.70;;
6288;SDS011;3177;49.880;8.836;2022-12-15T13:27:57;39.53;;;19.67;;
6288;SDS011;3177;49.880;8.836;2022-12-15T13:30:24;29.87;;;18.97;;
6288;SDS011;3177;49.880;8.836;2022-12-15T13:32:52;35.83;;;20.27;;
6288;SDS011;3177;49.880;8.836;2022-12-15T13:35:21;36.03;;;19.97;;
6288;SDS011;3177;49.880;8.836;2022-12-15T13:37:50;35.90;;;20.23;;
6288;SDS011;3177;49.880;8.836;2022-12-15T13:40:28;30.13;;;16.37;;
6288;SDS011;3177;49.880;8.836;2022-12-15T13:42:59;26.67;;;16.43;;
6288;SDS011;3177;49.880;8.836;2022-12-15T13:48:23;31.03;;;18.63;;
6288;SDS011;3177;49.880;8.836;2022-12-15T13:50:54;37.00;;;18.00;;
6288;SDS011;3177;49.880;8.836;2022-12-15T13:53:22;35.53;;;19.40;;
6288;SDS011;3177;49.880;8.836;2022-12-15T13:55:52;39.23;;;21.57;;
6288;SDS011;3177;49.880;8.836;2022-12-15T13:58:20;39.27;;;22.63;;
6288;SDS011;3177;49.880;8.836;2022-12-15T14:00:50;34.87;;;18.83;;
6288;SDS011;3177;49.880;8.836;2022-12-15T14:03:18;38.27;;;20.13;;
6288;SDS011;3177;49.880;8.836;2022-12-15T14:05:49;35.40;;;19.43;;
6288;SDS011;3177;49.880;8.836;2022-12-15T14:08:17;38.27;;;19.20;;
6288;SDS011;3177;49.880;8.836;2022-12-15T14:10:45;32.20;;;19.47;;
6288;SDS011;3177;49.880;8.836;2022-12-15T14:13:16;37.33;;;19.27;;
6288;SDS011;3177;49.880;8.836;2022-12-15T14:15:46;36.57;;;19.93;;
6288;SDS011;3177;49.880;8.836;2022-12-15T14:18:22;32.47;;;19.37;;
6288;SDS011;3177;49.880;8.836;2022-12-15T14:20:49;31.20;;;19.17;;
6288;SDS011;3177;49.880;8.836;2022-12-15T14:23:17;45.87;;;19.80;;
6288;SDS011;3177;49.880;8.836;2022-12-15T14:25:51;31.50;;;19.70;;
6288;SDS011;3177;49.880;8.836;2022-12-15T14:28:26;33.30;;;18.47;;
6288;SDS011;3177;49.880;8.836;2022-12-15T14:30:57;37.00;;;19.50;;
6288;SDS011;3177;49.880;8.836;2022-12-15T14:33:24;33.90;;;19.63;;
6288;SDS011;3177;49.880;8.836;2022-12-15T14:35:52;36.50;;;18.60;;
6288;SDS011;3177;49.880;8.836;2022-12-15T14:38:20;32.30;;;19.63;;
6288;SDS011;3177;49.880;8.836;2022-12-15T14:40:50;39.03;;;20.33;;
6288;SDS011;3177;49.880;8.836;2022-12-15T14:43:19;38.23;;;20.70;;
6288;SDS011;3177;49.880;8.836;2022-12-15T14:45:47;36.70;;;18.47;;
6288;SDS011;3177;49.880;8.836;2022-12-15T14:48:19;35.77;;;18.60;;
6288;SDS011;3177;49.880;8.836;2022-12-15T14:50:47;29.70;;;18.03;;
6288;SDS011;3177;49.880;8.836;2022-12-15T14:53:15;35.47;;;17.33;;
6288;SDS011;3177;49.880;8.836;2022-12-15T14:55:44;30.77;;;17.97;;
6288;SDS011;3177;49.880;8.836;2022-12-15T14:58:21;35.00;;;18.03;;
6288;SDS011;3177;49.880;8.836;2022-12-15T15:00:51;32.70;;;17.30;;
6288;SDS011;3177;49.880;8.836;2022-12-15T15:03:20;35.77;;;18.87;;
6288;SDS011;3177;49.880;8.836;2022-12-15T15:05:51;34.20;;;18.30;;
6288;SDS011;3177;49.880;8.836;2022-12-15T15:08:23;31.83;;;17.80;;
6288;SDS011;3177;49.880;8.836;2022-12-15T15:10:51;38.20;;;19.13;;
6288;SDS011;3177;49.880;8.836;2022-12-15T15:13:20;33.57;;;18.30;;
6288;SDS011;3177;49.880;8.836;2022-12-15T15:15:52;28.30;;;16.97;;
6288;SDS011;3177;49.880;8.836;2022-12-15T15:18:23;31.57;;;18.17;;
6288;SDS011;3177;49.880;8.836;2022-12-15T15:20:53;36.17;;;19.07;;